Time;durP1;ratioP1;P1;durP2;ratioP2;P2;SDS_P1;SDS_P2;PMS_P1;PMS_P2;Temp;Humidity;BMP_temperature;BMP_pressure;BME280_temperature;BME280_humidity;BME280_pressure;Samples;Min_cycle;Max_cycle;Signal;HPM_P1;HPM_P2
2023/12/24 00:01:58;;;;;;;13.52;7.85;;;9.30;99.90;;;;;;5083688;28;20047;-86
2023/12/24 00:04:23;;;;;;;17.63;7.55;;;9.30;99.90;;;;;;5062033;28;20031;-82
2023/12/24 00:06:49;;;;;;;21.25;9.95;;;9.40;99.90;;;;;;5068618;28;20400;-86
2023/12/24 00:09:15;;;;;;;22.27;7.68;;;9.40;99.90;;;;;;5066094;28;20040;-85
2023/12/24 00:11:40;;;;;;;16.85;8.18;;;9.40;99.90;;;;;;5066607;28;20066;-86
2023/12/24 00:14:06;;;;;;;39.75;35.35;;;9.40;99.90;;;;;;5100624;28;20044;-83
2023/12/24 00:16:32;;;;;;;67.72;60.70;;;9.40;99.90;;;;;;5078536;28;20488;-85
2023/12/24 00:18:58;;;;;;;20.15;7.53;;;9.40;99.90;;;;;;5070607;28;20071;-86
2023/12/24 00:21:24;;;;;;;16.33;7.85;;;9.40;99.90;;;;;;5086070;28;20044;-85
2023/12/24 00:23:50;;;;;;;15.25;7.03;;;9.40;99.90;;;;;;5084575;28;20455;-83
2023/12/24 00:26:16;;;;;;;18.05;7.38;;;9.40;99.90;;;;;;5081768;28;20162;-82
2023/12/24 00:28:44;;;;;;;14.27;7.82;;;9.40;99.90;;;;;;5073708;28;20071;-87
2023/12/24 00:31:09;;;;;;;16.33;7.22;;;9.40;99.90;;;;;;5106132;28;20573;-82
2023/12/24 00:33:35;;;;;;;19.17;7.90;;;9.40;99.90;;;;;;5087286;28;20075;-82
2023/12/24 00:36:01;;;;;;;28.30;17.77;;;9.40;99.90;;;;;;5094354;28;20114;-83
2023/12/24 00:38:26;;;;;;;14.90;7.63;;;9.40;99.90;;;;;;5107995;28;20522;-83
2023/12/24 00:40:52;;;;;;;19.88;7.50;;;9.40;99.90;;;;;;5081737;28;20043;-83
2023/12/24 00:43:18;;;;;;;20.23;8.05;;;9.40;99.90;;;;;;5069431;28;20503;-83
2023/12/24 00:45:47;;;;;;;19.20;7.60;;;9.40;99.90;;;;;;5085845;28;20036;-82
2023/12/24 00:48:13;;;;;;;19.83;8.63;;;9.40;99.90;;;;;;5087244;28;20051;-84
2023/12/24 00:50:39;;;;;;;12.18;8.02;;;9.40;99.90;;;;;;5084495;28;20400;-84
2023/12/24 00:53:04;;;;;;;15.30;7.70;;;9.50;99.90;;;;;;5099195;28;20097;-86
2023/12/24 00:55:30;;;;;;;19.38;7.43;;;9.40;99.90;;;;;;5075434;28;20044;-87
2023/12/24 00:57:56;;;;;;;15.32;8.18;;;9.50;99.90;;;;;;5078478;28;20036;-82
2023/12/24 01:00:22;;;;;;;14.20;7.30;;;9.50;99.90;;;;;;5083030;28;20048;-84
2023/12/24 01:02:48;;;;;;;17.33;6.72;;;9.50;99.90;;;;;;5079164;28;20100;-81
2023/12/24 01:05:13;;;;;;;18.95;7.38;;;9.40;99.90;;;;;;5107689;28;20039;-81
2023/12/24 01:07:40;;;;;;;17.02;8.05;;;9.40;99.90;;;;;;5090714;28;20093;-82
2023/12/24 01:10:06;;;;;;;13.35;7.72;;;9.40;99.90;;;;;;5076538;28;20481;-82
2023/12/24 01:12:32;;;;;;;20.92;8.63;;;9.40;99.90;;;;;;5087897;28;20088;-82
2023/12/24 01:14:59;;;;;;;16.52;7.78;;;9.40;99.90;;;;;;5106679;28;20507;-82
2023/12/24 01:17:24;;;;;;;15.82;8.00;;;9.40;99.90;;;;;;5058098;28;20052;-84
2023/12/24 01:19:50;;;;;;;18.83;8.00;;;9.40;99.90;;;;;;5067680;28;20491;-83
2023/12/24 01:22:16;;;;;;;16.02;7.50;;;9.40;99.90;;;;;;5106618;28;20028;-83
2023/12/24 01:24:41;;;;;;;16.48;7.45;;;9.40;99.90;;;;;;5068584;28;20460;-83
2023/12/24 01:27:07;;;;;;;16.50;9.63;;;9.40;99.90;;;;;;5063732;28;20679;-82
2023/12/24 01:29:33;;;;;;;16.23;7.70;;;9.40;99.90;;;;;;5071694;28;20482;-82
2023/12/24 01:31:59;;;;;;;14.75;7.05;;;9.30;99.90;;;;;;5082042;28;20040;-82
2023/12/24 01:34:24;;;;;;;19.40;9.05;;;9.30;99.90;;;;;;5079251;28;20381;-84
2023/12/24 01:36:50;;;;;;;20.20;8.25;;;9.30;99.90;;;;;;5086842;28;20471;-82
2023/12/24 01:39:16;;;;;;;14.25;7.53;;;9.30;99.90;;;;;;5102580;28;20430;-84
2023/12/24 01:41:43;;;;;;;18.20;13.57;;;9.30;99.90;;;;;;5105398;28;20043;-84
2023/12/24 01:44:09;;;;;;;12.60;9.38;;;9.40;99.90;;;;;;5065861;28;20049;-83
2023/12/24 01:46:36;;;;;;;15.45;10.15;;;9.40;99.90;;;;;;5079254;28;20588;-85
2023/12/24 01:49:02;;;;;;;14.10;7.72;;;9.40;99.90;;;;;;5072893;28;20353;-82
2023/12/24 01:51:30;;;;;;;11.10;9.15;;;9.40;99.90;;;;;;5083215;28;20046;-83
2023/12/24 01:53:56;;;;;;;11.43;6.90;;;9.40;99.90;;;;;;5085503;28;20051;-82
2023/12/24 01:56:24;;;;;;;13.00;6.93;;;9.40;99.90;;;;;;5085176;28;20123;-82
2023/12/24 01:58:51;;;;;;;50.17;40.40;;;9.40;99.90;;;;;;5065880;28;20577;-83
2023/12/24 02:01:17;;;;;;;14.55;7.68;;;9.40;99.90;;;;;;5063727;28;20077;-83
2023/12/24 02:03:43;;;;;;;16.45;7.85;;;9.40;99.90;;;;;;5082969;28;20059;-84
2023/12/24 02:06:09;;;;;;;14.13;8.45;;;9.40;99.90;;;;;;5083949;28;20466;-82
2023/12/24 02:08:38;;;;;;;24.90;22.63;;;9.40;99.90;;;;;;5095558;28;20472;-84
2023/12/24 02:11:04;;;;;;;19.40;9.55;;;9.40;99.90;;;;;;5083666;28;20167;-81
2023/12/24 02:13:30;;;;;;;15.55;8.65;;;9.50;99.90;;;;;;5085406;28;20482;-81
2023/12/24 02:15:58;;;;;;;21.38;9.07;;;9.40;99.90;;;;;;5088869;28;20043;-82
2023/12/24 02:18:24;;;;;;;18.70;9.75;;;9.40;99.90;;;;;;5088437;28;20044;-86
2023/12/24 02:20:50;;;;;;;15.07;8.00;;;9.40;99.90;;;;;;5068445;28;20522;-82
2023/12/24 02:23:16;;;;;;;51.47;43.30;;;9.40;99.90;;;;;;5106460;28;20043;-86
2023/12/24 02:25:42;;;;;;;17.35;8.48;;;9.50;99.90;;;;;;5071175;28;20468;-82
2023/12/24 02:28:21;;;;;;;15.68;8.50;;;9.50;99.90;;;;;;5078998;28;20825;-85
2023/12/24 02:30:51;;;;;;;18.10;15.57;;;9.50;99.90;;;;;;5108412;28;20466;-84
2023/12/24 02:33:19;;;;;;;20.63;7.57;;;9.50;99.90;;;;;;5082180;28;20419;-82
2023/12/24 02:35:47;;;;;;;35.17;28.65;;;9.50;99.90;;;;;;5080218;28;20406;-84
2023/12/24 02:38:13;;;;;;;17.83;8.77;;;9.50;99.90;;;;;;5106611;28;20042;-82
2023/12/24 02:40:39;;;;;;;23.95;8.80;;;9.50;99.90;;;;;;5084115;28;20445;-82
2023/12/24 02:43:04;;;;;;;24.35;8.30;;;9.50;99.90;;;;;;5109953;28;20035;-83
2023/12/24 02:45:30;;;;;;;17.85;9.82;;;9.50;99.90;;;;;;5094267;28;20631;-82
2023/12/24 02:47:56;;;;;;;25.40;20.05;;;9.50;99.90;;;;;;5076004;28;20069;-85
2023/12/24 02:50:21;;;;;;;19.50;8.48;;;9.50;99.90;;;;;;5079601;28;20039;-86
2023/12/24 02:52:47;;;;;;;15.43;8.30;;;9.50;99.90;;;;;;5082048;28;20085;-82
2023/12/24 02:55:13;;;;;;;16.20;8.13;;;9.50;99.90;;;;;;5084823;28;20614;-82
2023/12/24 02:57:38;;;;;;;10.48;7.03;;;9.50;99.90;;;;;;5087338;28;20474;-84
2023/12/24 03:00:08;;;;;;;17.52;8.05;;;9.50;99.90;;;;;;5080783;28;20040;-86
2023/12/24 03:02:34;;;;;;;18.15;8.10;;;9.50;99.90;;;;;;5103059;28;20097;-84
2023/12/24 03:05:00;;;;;;;37.97;34.90;;;9.60;99.90;;;;;;5057840;28;20039;-82
2023/12/24 03:07:25;;;;;;;12.73;6.97;;;9.60;99.90;;;;;;5094697;28;20053;-81
2023/12/24 03:09:51;;;;;;;15.68;7.70;;;9.60;99.90;;;;;;5060748;28;20062;-85
2023/12/24 03:12:17;;;;;;;15.38;7.78;;;9.60;99.90;;;;;;5066296;28;20096;-82
2023/12/24 03:14:43;;;;;;;16.15;8.63;;;9.60;99.90;;;;;;5101656;28;20536;-85
2023/12/24 03:17:08;;;;;;;9.20;7.30;;;9.60;99.90;;;;;;5083040;28;20040;-86
2023/12/24 03:19:34;;;;;;;12.15;7.20;;;9.60;99.90;;;;;;5080295;28;20480;-82
2023/12/24 03:22:00;;;;;;;10.98;6.20;;;9.70;99.90;;;;;;5097064;28;20035;-82
2023/12/24 03:24:25;;;;;;;16.67;15.05;;;9.60;99.90;;;;;;5083814;28;20522;-83
2023/12/24 03:26:51;;;;;;;11.27;7.53;;;9.70;99.90;;;;;;5082534;28;20032;-81
2023/12/24 03:29:16;;;;;;;12.88;7.75;;;9.70;99.90;;;;;;5091103;28;20032;-81
2023/12/24 03:31:42;;;;;;;10.48;7.30;;;9.70;99.90;;;;;;5086055;28;20046;-82
2023/12/24 03:34:07;;;;;;;11.27;6.25;;;9.70;99.90;;;;;;5090254;28;20064;-81
2023/12/24 03:36:33;;;;;;;9.80;6.28;;;9.70;99.90;;;;;;5084496;28;20044;-86
2023/12/24 03:39:00;;;;;;;9.27;6.70;;;9.80;99.90;;;;;;5085124;28;20051;-81
2023/12/24 03:41:25;;;;;;;11.57;6.97;;;9.80;99.90;;;;;;5059979;28;20482;-81
2023/12/24 03:43:51;;;;;;;8.32;5.53;;;9.70;99.90;;;;;;5075338;28;20138;-81
2023/12/24 03:46:19;;;;;;;57.13;51.60;;;9.70;99.90;;;;;;5063516;28;20047;-84
2023/12/24 03:48:44;;;;;;;8.27;6.05;;;9.70;99.90;;;;;;5102693;28;20126;-83
2023/12/24 03:51:11;;;;;;;9.70;6.13;;;9.80;99.90;;;;;;5062385;28;20039;-82
2023/12/24 03:53:37;;;;;;;9.75;7.30;;;9.70;99.90;;;;;;5108663;28;20804;-84
2023/12/24 03:56:03;;;;;;;7.75;5.55;;;9.80;99.90;;;;;;5096163;28;20031;-82
2023/12/24 03:58:29;;;;;;;8.70;6.45;;;9.80;99.90;;;;;;5084302;28;20099;-86
2023/12/24 04:00:55;;;;;;;8.45;5.57;;;9.80;99.90;;;;;;5101573;28;20437;-84
2023/12/24 04:03:20;;;;;;;7.35;5.57;;;9.80;99.90;;;;;;5098230;28;20460;-81
2023/12/24 04:05:46;;;;;;;23.25;20.80;;;9.80;99.90;;;;;;5086522;28;20035;-83
2023/12/24 04:08:12;;;;;;;10.73;9.63;;;9.80;99.90;;;;;;5087154;28;20070;-82
2023/12/24 04:10:39;;;;;;;7.15;5.50;;;9.90;99.90;;;;;;5082720;28;20096;-83
2023/12/24 04:13:06;;;;;;;8.00;5.70;;;9.80;99.90;;;;;;5055033;28;20039;-83
2023/12/24 04:15:32;;;;;;;34.55;30.88;;;9.80;99.90;;;;;;5075027;28;20115;-85
2023/12/24 04:17:58;;;;;;;8.52;6.30;;;9.80;99.90;;;;;;5074970;28;20043;-81
2023/12/24 04:20:23;;;;;;;9.23;6.07;;;9.80;99.90;;;;;;5097271;28;20059;-81
2023/12/24 04:22:49;;;;;;;8.63;6.00;;;9.80;99.90;;;;;;5072690;28;20527;-84
2023/12/24 04:25:15;;;;;;;6.20;5.70;;;9.80;99.90;;;;;;5075925;28;20063;-81
2023/12/24 04:27:40;;;;;;;6.88;5.95;;;9.90;99.90;;;;;;5061099;28;20377;-84
2023/12/24 04:30:06;;;;;;;8.68;6.13;;;9.80;99.90;;;;;;5070976;28;20036;-83
2023/12/24 04:32:32;;;;;;;8.73;6.13;;;9.90;99.90;;;;;;5078942;28;20032;-83
2023/12/24 04:34:58;;;;;;;14.38;13.50;;;9.90;99.90;;;;;;5099208;28;20048;-82
2023/12/24 04:37:23;;;;;;;7.00;6.25;;;9.90;99.90;;;;;;5084877;28;20059;-84
2023/12/24 04:39:49;;;;;;;7.22;6.50;;;9.90;99.90;;;;;;5100761;28;20043;-81
2023/12/24 04:42:16;;;;;;;8.57;6.82;;;9.90;99.90;;;;;;5060039;28;20040;-85
2023/12/24 04:44:41;;;;;;;37.03;32.25;;;9.90;99.90;;;;;;5058871;28;20070;-85
2023/12/24 04:47:07;;;;;;;8.18;6.80;;;9.90;99.90;;;;;;5067275;28;20081;-81
2023/12/24 04:49:33;;;;;;;23.35;21.38;;;9.90;99.90;;;;;;5079844;28;20042;-84
2023/12/24 04:51:59;;;;;;;8.60;6.38;;;10.00;99.90;;;;;;5066451;28;20407;-81
2023/12/24 04:54:26;;;;;;;7.93;6.43;;;9.90;99.90;;;;;;5064403;28;20443;-83
2023/12/24 04:56:52;;;;;;;9.32;6.30;;;10.00;99.90;;;;;;5083564;28;20427;-86
2023/12/24 04:59:17;;;;;;;10.25;6.13;;;10.00;99.90;;;;;;5065718;28;20164;-87
2023/12/24 05:01:43;;;;;;;9.23;6.32;;;10.00;99.90;;;;;;5084737;28;20066;-82
2023/12/24 05:04:08;;;;;;;9.80;8.73;;;10.00;99.90;;;;;;5066245;28;20507;-82
2023/12/24 05:06:34;;;;;;;11.32;6.68;;;10.00;99.90;;;;;;5087564;28;20036;-85
2023/12/24 05:08:59;;;;;;;10.45;7.55;;;10.00;99.90;;;;;;5062899;28;21735;-82
2023/12/24 05:11:25;;;;;;;12.18;11.10;;;10.00;99.90;;;;;;5070547;28;20412;-82
2023/12/24 05:13:51;;;;;;;10.85;8.35;;;10.10;99.90;;;;;;5109070;28;20042;-86
2023/12/24 05:16:16;;;;;;;11.73;7.47;;;10.10;99.90;;;;;;5063755;28;20562;-84
2023/12/24 05:18:42;;;;;;;12.63;7.70;;;10.10;99.90;;;;;;5062910;28;20477;-85
2023/12/24 05:21:08;;;;;;;11.18;7.68;;;10.10;99.90;;;;;;5072627;28;20039;-85
2023/12/24 05:23:34;;;;;;;12.13;7.57;;;10.20;99.90;;;;;;5089954;28;20106;-82
2023/12/24 05:26:00;;;;;;;12.35;8.20;;;10.10;99.90;;;;;;5062412;28;20047;-80
2023/12/24 05:28:25;;;;;;;13.65;8.43;;;10.10;99.90;;;;;;5084568;28;20031;-82
2023/12/24 05:30:51;;;;;;;14.68;8.05;;;10.10;99.90;;;;;;5072228;28;20113;-82
2023/12/24 05:33:16;;;;;;;16.00;10.13;;;10.10;99.90;;;;;;5066746;28;20059;-85
2023/12/24 05:35:42;;;;;;;15.40;7.72;;;10.10;99.90;;;;;;5083530;28;20042;-81
2023/12/24 05:38:08;;;;;;;13.52;7.90;;;10.10;99.90;;;;;;5061215;28;20067;-84
2023/12/24 05:40:33;;;;;;;15.80;9.93;;;10.20;99.90;;;;;;5057359;28;20419;-84
2023/12/24 05:42:59;;;;;;;14.80;8.15;;;10.20;99.90;;;;;;5087451;28;20040;-82
2023/12/24 05:45:24;;;;;;;16.08;8.82;;;10.20;99.90;;;;;;5062449;28;20035;-84
2023/12/24 05:47:50;;;;;;;17.52;8.10;;;10.20;99.90;;;;;;5084201;28;20488;-82
2023/12/24 05:50:16;;;;;;;20.13;18.13;;;10.20;99.90;;;;;;5084067;28;20472;-85
2023/12/24 05:52:41;;;;;;;29.60;26.75;;;10.30;99.90;;;;;;5083466;28;20497;-85
2023/12/24 05:55:09;;;;;;;26.50;13.38;;;10.30;99.90;;;;;;5086896;28;20530;-82
2023/12/24 05:57:35;;;;;;;19.33;8.52;;;10.30;99.90;;;;;;5081986;28;20039;-82
2023/12/24 06:00:01;;;;;;;17.98;15.80;;;10.30;99.90;;;;;;5085756;28;20044;-82
2023/12/24 06:02:26;;;;;;;15.70;8.02;;;10.20;99.90;;;;;;5067427;28;20040;-84
2023/12/24 06:04:52;;;;;;;33.95;30.45;;;10.30;99.90;;;;;;5063832;28;20039;-86
2023/12/24 06:07:18;;;;;;;19.75;8.10;;;10.30;99.90;;;;;;5063264;28;20118;-85
2023/12/24 06:09:43;;;;;;;12.05;6.75;;;10.30;99.90;;;;;;5101237;28;20046;-82
2023/12/24 06:12:09;;;;;;;21.58;13.32;;;10.40;99.90;;;;;;5084954;28;20038;-82
2023/12/24 06:14:35;;;;;;;22.90;16.98;;;10.40;99.90;;;;;;5106300;28;20036;-82
2023/12/24 06:17:00;;;;;;;16.70;7.57;;;10.40;99.90;;;;;;5085806;28;20039;-83
2023/12/24 06:19:26;;;;;;;16.00;7.20;;;10.40;99.90;;;;;;5069902;28;20054;-84
2023/12/24 06:21:52;;;;;;;17.52;8.45;;;10.40;99.90;;;;;;5082378;28;20136;-86
2023/12/24 06:24:20;;;;;;;17.25;7.90;;;10.40;99.90;;;;;;5079964;28;20032;-82
2023/12/24 06:26:47;;;;;;;23.55;7.68;;;10.50;99.90;;;;;;5080409;28;20046;-82
2023/12/24 06:29:13;;;;;;;24.30;7.95;;;10.40;99.90;;;;;;5061853;28;20067;-82
2023/12/24 06:31:39;;;;;;;17.05;8.88;;;10.50;99.90;;;;;;5081285;28;20083;-83
2023/12/24 06:34:04;;;;;;;22.48;8.20;;;10.50;99.90;;;;;;5096143;28;20043;-83
2023/12/24 06:36:30;;;;;;;22.13;8.18;;;10.40;99.90;;;;;;5079669;28;20417;-83
2023/12/24 06:38:56;;;;;;;17.80;7.55;;;10.40;99.90;;;;;;5073797;28;20567;-87
2023/12/24 06:41:22;;;;;;;18.80;9.70;;;10.50;99.90;;;;;;5082398;28;20047;-84
2023/12/24 06:43:48;;;;;;;18.02;7.35;;;10.50;99.90;;;;;;5093161;28;20036;-82
2023/12/24 06:46:14;;;;;;;200.73;128.40;;;10.50;99.90;;;;;;5092668;28;20464;-85
2023/12/24 06:48:40;;;;;;;20.70;17.00;;;10.50;99.90;;;;;;5099287;28;20051;-85
2023/12/24 06:51:05;;;;;;;14.27;7.30;;;10.50;99.90;;;;;;5065990;28;20051;-84
2023/12/24 06:53:31;;;;;;;16.70;7.10;;;10.50;99.90;;;;;;5057939;28;20047;-83
2023/12/24 06:55:57;;;;;;;16.50;6.88;;;10.50;99.90;;;;;;5095194;28;20044;-83
2023/12/24 06:58:22;;;;;;;30.80;27.83;;;10.50;99.90;;;;;;5082422;28;20056;-83
2023/12/24 07:00:48;;;;;;;14.23;8.35;;;10.50;99.90;;;;;;5079531;28;20076;-82
2023/12/24 07:03:14;;;;;;;15.88;8.15;;;10.50;99.90;;;;;;5064435;28;20494;-85
2023/12/24 07:05:41;;;;;;;21.45;8.43;;;10.60;99.90;;;;;;5102016;28;20108;-85
2023/12/24 07:08:07;;;;;;;17.90;10.88;;;10.60;99.90;;;;;;5060358;28;20040;-81
2023/12/24 07:10:33;;;;;;;15.50;6.90;;;10.50;99.90;;;;;;5077699;28;20067;-84
2023/12/24 07:12:59;;;;;;;20.58;7.70;;;10.60;99.90;;;;;;5076858;28;20032;-83
2023/12/24 07:15:25;;;;;;;25.63;8.65;;;10.60;99.90;;;;;;5098264;28;20496;-86
2023/12/24 07:17:51;;;;;;;15.18;7.20;;;10.60;99.90;;;;;;5083070;28;20040;-82
2023/12/24 07:20:16;;;;;;;17.77;7.78;;;10.70;99.90;;;;;;5064651;28;20151;-82
2023/12/24 07:22:43;;;;;;;16.25;7.85;;;10.70;99.90;;;;;;5080554;28;20043;-84
2023/12/24 07:25:09;;;;;;;18.77;14.02;;;10.70;99.90;;;;;;5060041;28;20495;-83
2023/12/24 07:27:35;;;;;;;15.80;8.10;;;10.70;99.90;;;;;;5099017;28;20086;-82
2023/12/24 07:30:01;;;;;;;19.10;13.13;;;10.70;99.90;;;;;;5078682;28;20455;-84
2023/12/24 07:32:26;;;;;;;13.65;6.53;;;10.70;99.90;;;;;;5079802;28;20048;-83
2023/12/24 07:34:52;;;;;;;16.88;6.97;;;10.70;99.90;;;;;;5083941;28;20407;-83
2023/12/24 07:37:17;;;;;;;21.05;14.73;;;10.70;99.90;;;;;;5070150;28;20039;-85
2023/12/24 07:39:43;;;;;;;48.70;43.40;;;10.80;99.90;;;;;;5060484;28;20040;-87
2023/12/24 07:42:09;;;;;;;17.38;7.60;;;10.80;99.90;;;;;;5069780;28;20031;-83
2023/12/24 07:44:34;;;;;;;16.17;6.97;;;10.80;99.90;;;;;;5104371;28;20043;-83
2023/12/24 07:47:00;;;;;;;31.33;28.20;;;10.80;99.90;;;;;;5068485;28;20031;-86
2023/12/24 07:49:26;;;;;;;19.92;8.50;;;10.80;99.90;;;;;;5084211;28;20676;-82
2023/12/24 07:51:52;;;;;;;16.73;10.80;;;10.80;99.90;;;;;;5079921;28;20040;-86
2023/12/24 07:54:18;;;;;;;16.52;9.85;;;10.80;99.90;;;;;;5064035;28;20040;-87
2023/12/24 07:56:44;;;;;;;12.82;6.53;;;10.80;99.90;;;;;;5094409;28;20062;-86
2023/12/24 07:59:12;;;;;;;19.10;11.65;;;10.80;99.90;;;;;;5079342;28;20040;-87
2023/12/24 08:01:38;;;;;;;17.83;7.88;;;10.80;99.90;;;;;;5095125;28;20039;-85
2023/12/24 08:04:04;;;;;;;16.90;8.00;;;10.80;99.90;;;;;;5099865;28;20085;-82
2023/12/24 08:06:30;;;;;;;15.93;9.45;;;10.80;99.90;;;;;;5062646;28;20043;-83
2023/12/24 08:08:58;;;;;;;22.20;7.35;;;10.80;99.90;;;;;;5068669;28;20037;-83
2023/12/24 08:11:24;;;;;;;15.63;8.13;;;10.80;99.90;;;;;;5083134;28;20047;-84
2023/12/24 08:13:50;;;;;;;21.15;7.68;;;10.80;99.90;;;;;;5065544;28;20036;-82
2023/12/24 08:16:16;;;;;;;16.45;8.05;;;10.80;99.90;;;;;;5082292;28;20035;-83
2023/12/24 08:18:42;;;;;;;18.58;7.47;;;10.80;99.90;;;;;;5082633;28;20457;-83
2023/12/24 08:21:10;;;;;;;21.77;8.43;;;10.80;99.90;;;;;;5077718;28;20043;-84
2023/12/24 08:23:36;;;;;;;15.05;7.22;;;10.80;99.90;;;;;;5082150;28;20040;-84
2023/12/24 08:26:01;;;;;;;20.50;7.93;;;10.90;99.90;;;;;;5063469;28;20065;-81
2023/12/24 08:28:27;;;;;;;27.35;24.33;;;10.90;99.90;;;;;;5081770;28;20035;-85
2023/12/24 08:30:53;;;;;;;27.13;21.85;;;10.90;99.90;;;;;;5074831;28;20034;-82
2023/12/24 08:33:19;;;;;;;15.88;6.55;;;11.00;99.90;;;;;;5065588;28;20668;-85
2023/12/24 08:35:44;;;;;;;15.50;7.07;;;10.90;99.90;;;;;;5095095;28;20585;-82
2023/12/24 08:38:10;;;;;;;23.13;8.80;;;10.90;99.90;;;;;;5080583;28;20122;-82
2023/12/24 08:40:36;;;;;;;23.98;7.65;;;10.90;99.90;;;;;;5079324;28;20070;-85
2023/12/24 08:43:01;;;;;;;16.73;6.72;;;10.90;99.90;;;;;;5105610;28;20035;-86
2023/12/24 08:45:28;;;;;;;20.15;7.45;;;11.00;99.90;;;;;;5083431;28;20542;-82
2023/12/24 08:47:54;;;;;;;24.80;7.95;;;11.00;99.90;;;;;;5067604;28;20079;-84
2023/12/24 08:50:21;;;;;;;26.38;17.70;;;11.00;99.90;;;;;;5085880;28;20075;-85
2023/12/24 08:52:47;;;;;;;20.02;11.10;;;11.00;99.90;;;;;;5082841;28;20051;-84
2023/12/24 08:55:13;;;;;;;19.67;6.88;;;11.00;99.90;;;;;;5079606;28;20043;-82
2023/12/24 08:57:38;;;;;;;134.13;121.90;;;11.10;99.90;;;;;;5087965;28;20044;-83
2023/12/24 09:00:05;;;;;;;20.45;7.50;;;11.10;99.90;;;;;;5083778;28;20148;-82
2023/12/24 09:02:31;;;;;;;17.27;7.35;;;11.20;99.90;;;;;;5076295;28;20114;-85
2023/12/24 09:04:58;;;;;;;20.42;8.13;;;11.20;99.90;;;;;;5083213;28;20077;-84
2023/12/24 09:07:24;;;;;;;11.85;6.05;;;11.20;99.90;;;;;;5069447;28;20035;-85
2023/12/24 09:09:51;;;;;;;22.40;6.82;;;11.20;99.90;;;;;;5092447;28;20058;-82
2023/12/24 09:12:18;;;;;;;24.52;19.10;;;11.20;99.90;;;;;;5080513;28;20502;-83
2023/12/24 09:14:43;;;;;;;21.65;7.72;;;11.20;99.90;;;;;;5068277;28;20118;-82
2023/12/24 09:17:09;;;;;;;18.58;6.80;;;11.20;99.90;;;;;;5084955;28;20115;-82
2023/12/24 09:19:35;;;;;;;17.65;7.20;;;11.20;99.90;;;;;;5077941;28;20434;-82
2023/12/24 09:22:00;;;;;;;19.05;14.27;;;11.30;99.90;;;;;;5082133;28;20132;-83
2023/12/24 09:24:26;;;;;;;14.70;6.78;;;11.30;99.90;;;;;;5081454;28;20036;-83
2023/12/24 09:26:52;;;;;;;15.68;6.55;;;11.30;99.90;;;;;;5108737;28;20031;-82
2023/12/24 09:29:21;;;;;;;15.50;6.60;;;11.40;99.90;;;;;;5081554;28;20042;-85
2023/12/24 09:31:47;;;;;;;12.50;5.88;;;11.30;99.90;;;;;;5082561;28;20062;-85
2023/12/24 09:34:13;;;;;;;16.10;6.22;;;11.40;99.90;;;;;;5106426;28;20387;-85
2023/12/24 09:36:39;;;;;;;15.40;6.40;;;11.40;99.90;;;;;;5104056;28;20179;-85
2023/12/24 09:39:04;;;;;;;13.88;6.88;;;11.50;99.90;;;;;;5066940;28;20031;-83
2023/12/24 09:41:30;;;;;;;10.40;6.03;;;11.50;99.90;;;;;;5067083;28;20040;-82
2023/12/24 09:43:56;;;;;;;13.98;5.85;;;11.50;99.90;;;;;;5091004;28;20040;-85
2023/12/24 09:46:23;;;;;;;17.60;6.53;;;11.60;99.90;;;;;;5105343;28;20031;-83
2023/12/24 09:48:49;;;;;;;11.82;5.75;;;11.60;99.90;;;;;;5061012;28;20047;-83
2023/12/24 09:51:16;;;;;;;19.33;6.05;;;11.70;99.90;;;;;;5105147;27;20121;-82
2023/12/24 09:53:46;;;;;;;10.73;5.65;;;11.70;99.90;;;;;;5078110;28;20109;-84
2023/12/24 09:56:11;;;;;;;14.25;6.75;;;11.70;99.90;;;;;;5072020;28;20054;-82
2023/12/24 09:58:37;;;;;;;14.13;5.72;;;11.80;99.90;;;;;;5106122;28;20035;-83
2023/12/24 10:01:03;;;;;;;9.70;5.93;;;11.70;99.90;;;;;;5098127;28;20176;-83
2023/12/24 10:03:29;;;;;;;17.40;15.48;;;11.70;99.90;;;;;;5080661;28;20098;-85
2023/12/24 10:06:04;;;;;;;14.82;6.57;;;11.70;99.90;;;;;;5107923;28;20035;-83
2023/12/24 10:08:36;;;;;;;15.20;5.35;;;11.70;99.90;;;;;;5089104;28;20035;-86
2023/12/24 10:11:16;;;;;;;11.98;5.35;;;11.70;99.90;;;;;;5109444;28;20046;-87
2023/12/24 10:13:43;;;;;;;13.07;8.93;;;11.70;99.90;;;;;;5104587;28;20205;-85
2023/12/24 10:16:10;;;;;;;17.05;5.95;;;11.70;99.90;;;;;;5071518;28;20046;-84
2023/12/24 10:18:36;;;;;;;13.48;5.38;;;11.70;99.90;;;;;;5066921;28;20417;-83
2023/12/24 10:21:09;;;;;;;16.45;5.53;;;11.70;99.90;;;;;;5105834;28;20067;-82
2023/12/24 10:23:36;;;;;;;10.10;5.72;;;11.70;99.90;;;;;;5095039;28;20050;-82
2023/12/24 10:26:08;;;;;;;11.27;5.22;;;11.80;99.90;;;;;;5082615;28;20043;-85
2023/12/24 10:28:45;;;;;;;13.70;5.70;;;11.90;99.90;;;;;;5105786;28;20027;-82
2023/12/24 10:31:10;;;;;;;11.38;5.88;;;11.90;99.90;;;;;;5097491;28;20047;-84
2023/12/24 10:33:40;;;;;;;13.55;8.05;;;11.90;99.90;;;;;;5082794;28;20051;-82
2023/12/24 10:36:09;;;;;;;11.98;5.90;;;11.90;99.90;;;;;;5103494;28;20040;-84
2023/12/24 10:38:36;;;;;;;11.18;5.10;;;12.00;99.90;;;;;;5084516;28;20454;-82
2023/12/24 10:41:02;;;;;;;14.70;6.97;;;12.00;99.90;;;;;;5099429;28;20040;-83
2023/12/24 10:43:28;;;;;;;14.35;11.90;;;12.10;99.90;;;;;;5096538;28;20496;-85
2023/12/24 10:45:55;;;;;;;9.85;4.63;;;12.10;99.90;;;;;;5087385;28;20046;-82
2023/12/24 10:48:21;;;;;;;10.57;5.13;;;12.20;99.90;;;;;;5110049;28;20051;-87
2023/12/24 10:50:47;;;;;;;8.90;4.95;;;12.10;99.90;;;;;;5086861;28;20153;-82
2023/12/24 10:53:13;;;;;;;15.38;7.00;;;12.20;99.90;;;;;;5101949;28;20069;-82
2023/12/24 10:55:42;;;;;;;10.52;4.70;;;12.30;99.90;;;;;;5082344;28;20035;-83
2023/12/24 10:58:22;;;;;;;10.25;4.68;;;12.30;99.90;;;;;;5065498;28;20041;-83
2023/12/24 11:00:47;;;;;;;13.20;4.88;;;12.30;99.90;;;;;;5103683;28;20143;-86
2023/12/24 11:03:44;;;;;;;10.82;5.22;;;12.40;99.90;;;;;;5075027;28;20938;-82
2023/12/24 11:06:09;;;;;;;63.20;44.85;;;12.40;99.90;;;;;;5073498;28;20445;-83
2023/12/24 11:08:35;;;;;;;18.48;8.10;;;12.30;99.90;;;;;;5097868;28;20070;-84
2023/12/24 11:11:08;;;;;;;16.42;5.90;;;12.30;99.90;;;;;;5099995;28;20499;-81
2023/12/24 11:13:36;;;;;;;12.93;5.15;;;12.30;99.90;;;;;;5080362;28;20044;-84
2023/12/24 11:16:10;;;;;;;45.17;41.58;;;12.30;99.90;;;;;;5103808;28;20043;-84
2023/12/24 11:18:47;;;;;;;12.00;5.15;;;12.30;99.90;;;;;;5082525;28;20044;-81
2023/12/24 11:21:14;;;;;;;12.30;6.85;;;12.20;99.90;;;;;;5100442;28;20132;-82
2023/12/24 11:23:41;;;;;;;14.60;5.15;;;12.20;99.90;;;;;;5081977;28;20044;-83
2023/12/24 11:26:31;;;;;;;12.38;5.70;;;12.20;99.90;;;;;;5081679;28;20044;-81
2023/12/24 11:28:57;;;;;;;12.00;5.38;;;12.20;99.90;;;;;;5091577;28;20047;-82
2023/12/24 11:31:24;;;;;;;15.93;5.50;;;12.10;99.90;;;;;;5101147;28;20134;-83
2023/12/24 11:33:50;;;;;;;15.15;8.45;;;12.10;99.90;;;;;;5081640;28;20456;-84
2023/12/24 11:36:18;;;;;;;13.20;5.00;;;12.10;99.90;;;;;;5102910;28;20044;-82
2023/12/24 11:38:45;;;;;;;14.63;5.10;;;12.10;99.90;;;;;;5077943;28;20043;-81
2023/12/24 11:41:18;;;;;;;13.95;5.20;;;12.20;99.90;;;;;;5079143;28;20060;-83
2023/12/24 11:43:58;;;;;;;16.40;5.18;;;12.20;99.90;;;;;;5079215;28;20158;-84
2023/12/24 11:46:25;;;;;;;11.85;5.03;;;12.10;99.90;;;;;;5091504;28;20096;-82
2023/12/24 11:48:53;;;;;;;14.30;5.00;;;12.10;99.90;;;;;;5095488;28;20067;-83
2023/12/24 11:51:29;;;;;;;14.02;5.30;;;12.10;99.90;;;;;;5080591;28;20055;-82
2023/12/24 11:54:05;;;;;;;12.18;5.45;;;12.10;99.90;;;;;;5078203;28;20105;-81
2023/12/24 11:56:32;;;;;;;12.95;5.40;;;12.10;99.90;;;;;;5073049;28;20039;-82
2023/12/24 11:58:59;;;;;;;12.02;6.50;;;12.10;99.90;;;;;;5075249;28;20237;-84
2023/12/24 12:01:30;;;;;;;14.40;5.95;;;12.10;99.90;;;;;;5097853;28;20123;-84
2023/12/24 12:03:57;;;;;;;13.07;5.28;;;12.10;99.90;;;;;;5077634;28;20092;-84
2023/12/24 12:06:26;;;;;;;16.80;5.28;;;12.10;99.90;;;;;;5095668;28;20596;-82
2023/12/24 12:08:56;;;;;;;12.70;5.22;;;12.20;99.90;;;;;;5093616;28;20032;-81
2023/12/24 12:11:21;;;;;;;11.60;4.53;;;12.20;99.90;;;;;;5083544;28;20404;-83
2023/12/24 12:13:47;;;;;;;9.93;4.70;;;12.30;99.90;;;;;;5084363;28;20059;-85
2023/12/24 12:16:13;;;;;;;12.50;5.20;;;12.20;99.90;;;;;;5098079;28;20035;-82
2023/12/24 12:18:39;;;;;;;9.20;4.75;;;12.30;99.90;;;;;;5089298;28;20051;-84
2023/12/24 12:21:04;;;;;;;8.07;4.80;;;12.30;99.90;;;;;;5097207;28;20388;-83
2023/12/24 12:23:30;;;;;;;15.95;6.30;;;12.40;99.90;;;;;;5096369;28;20040;-84
2023/12/24 12:25:56;;;;;;;11.15;6.13;;;12.30;99.90;;;;;;5081999;28;20411;-86
2023/12/24 12:28:22;;;;;;;11.90;5.13;;;12.40;99.90;;;;;;5098047;28;20036;-83
2023/12/24 12:30:48;;;;;;;15.02;5.57;;;12.50;99.90;;;;;;5084701;28;20070;-84
2023/12/24 12:33:14;;;;;;;14.20;4.78;;;12.50;99.90;;;;;;5098473;28;20040;-85
2023/12/24 12:35:39;;;;;;;11.80;4.68;;;12.50;99.90;;;;;;5084559;28;20086;-86
2023/12/24 12:38:05;;;;;;;8.20;5.20;;;12.50;99.90;;;;;;5078453;28;20039;-83